Terminal Aerodrome Forecast
Issued by NWS Twin Cities, MN

Current Version | Previous Version | Text Only | Print | Product List | Glossary On
Versions: 1 2 3 4 5 6 7 8 9 10 11 12 13 14 15
000
FTUS43 KMPX 221700
TAFSTC
TAF
KSTC 221737Z 2218/2318 13013KT 3SM -RA BR OVC006
     FM230000 10010KT 2SM -RA BR OVC004
     FM230500 07010KT 2SM -SN BR OVC005
     FM230900 03011KT 3SM -SN BR OVC006=

USA.gov is the U.S. government's official web portal to all federal, state and local government web resources and services.